sensor_id;sensor_type;location;lat;lon;timestamp;pressure;altitude;pressure_sealevel;temperature;humidity
17521;BME280;8878;-33.370;-70.552;2022-08-18T00:02:17;92989.16;;;8.83;100.00
17521;BME280;8878;-33.370;-70.552;2022-08-18T00:04:48;92990.03;;;8.48;100.00
17521;BME280;8878;-33.370;-70.552;2022-08-18T00:07:18;92999.53;;;8.26;100.00
17521;BME280;8878;-33.370;-70.552;2022-08-18T00:09:50;92996.81;;;8.21;100.00
17521;BME280;8878;-33.370;-70.552;2022-08-18T00:12:22;93004.56;;;8.39;100.00
17521;BME280;8878;-33.370;-70.552;2022-08-18T00:14:53;93016.00;;;8.56;100.00
17521;BME280;8878;-33.370;-70.552;2022-08-18T00:17:23;93021.91;;;8.63;100.00
17521;BME280;8878;-33.370;-70.552;2022-08-18T00:19:52;93025.34;;;8.64;100.00
17521;BME280;8878;-33.370;-70.552;2022-08-18T00:22:22;93023.97;;;8.61;100.00
17521;BME280;8878;-33.370;-70.552;2022-08-18T00:24:55;93017.59;;;8.57;100.00
17521;BME280;8878;-33.370;-70.552;2022-08-18T00:27:28;93024.78;;;8.62;100.00
17521;BME280;8878;-33.370;-70.552;2022-08-18T00:30:00;93021.34;;;8.61;100.00
17521;BME280;8878;-33.370;-70.552;2022-08-18T00:32:33;93025.72;;;8.56;100.00
17521;BME280;8878;-33.370;-70.552;2022-08-18T00:35:07;93027.13;;;8.35;100.00
17521;BME280;8878;-33.370;-70.552;2022-08-18T00:37:37;93029.03;;;8.28;100.00
17521;BME280;8878;-33.370;-70.552;2022-08-18T00:40:10;93032.47;;;8.40;100.00
17521;BME280;8878;-33.370;-70.552;2022-08-18T00:42:43;93047.56;;;8.45;100.00
17521;BME280;8878;-33.370;-70.552;2022-08-18T00:45:15;93058.84;;;8.10;100.00
17521;BME280;8878;-33.370;-70.552;2022-08-18T00:47:46;93045.03;;;8.15;100.00
17521;BME280;8878;-33.370;-70.552;2022-08-18T00:50:19;93039.00;;;8.38;100.00
17521;BME280;8878;-33.370;-70.552;2022-08-18T00:52:51;93040.47;;;7.99;100.00
17521;BME280;8878;-33.370;-70.552;2022-08-18T00:55:25;93045.94;;;7.85;100.00
17521;BME280;8878;-33.370;-70.552;2022-08-18T00:58:02;93040.94;;;7.96;100.00
17521;BME280;8878;-33.370;-70.552;2022-08-18T01:00:37;93039.22;;;8.13;100.00
17521;BME280;8878;-33.370;-70.552;2022-08-18T01:03:13;93054.28;;;8.29;100.00
17521;BME280;8878;-33.370;-70.552;2022-08-18T01:05:51;93055.22;;;8.35;100.00
17521;BME280;8878;-33.370;-70.552;2022-08-18T01:08:22;93053.19;;;8.37;100.00
17521;BME280;8878;-33.370;-70.552;2022-08-18T01:10:54;93058.31;;;8.32;100.00
17521;BME280;8878;-33.370;-70.552;2022-08-18T01:13:26;93053.28;;;8.30;100.00
17521;BME280;8878;-33.370;-70.552;2022-08-18T01:15:57;93048.13;;;8.23;100.00
17521;BME280;8878;-33.370;-70.552;2022-08-18T01:18:47;93065.81;;;8.05;100.00
17521;BME280;8878;-33.370;-70.552;2022-08-18T01:21:36;93074.25;;;7.72;100.00
17521;BME280;8878;-33.370;-70.552;2022-08-18T01:24:24;93075.38;;;7.64;100.00
17521;BME280;8878;-33.370;-70.552;2022-08-18T01:27:16;93076.66;;;7.73;100.00
17521;BME280;8878;-33.370;-70.552;2022-08-18T01:29:45;93079.53;;;7.95;100.00
17521;BME280;8878;-33.370;-70.552;2022-08-18T01:32:15;93083.19;;;8.06;100.00
17521;BME280;8878;-33.370;-70.552;2022-08-18T01:34:46;93085.94;;;7.88;100.00
17521;BME280;8878;-33.370;-70.552;2022-08-18T01:37:18;93080.09;;;7.85;100.00
17521;BME280;8878;-33.370;-70.552;2022-08-18T01:39:50;93095.75;;;8.04;100.00
17521;BME280;8878;-33.370;-70.552;2022-08-18T01:42:20;93087.09;;;8.15;100.00
17521;BME280;8878;-33.370;-70.552;2022-08-18T01:44:49;93082.53;;;8.22;100.00
17521;BME280;8878;-33.370;-70.552;2022-08-18T01:47:19;93089.13;;;8.24;100.00
17521;BME280;8878;-33.370;-70.552;2022-08-18T01:49:49;93084.69;;;8.25;100.00
17521;BME280;8878;-33.370;-70.552;2022-08-18T01:52:21;93097.84;;;8.02;100.00
17521;BME280;8878;-33.370;-70.552;2022-08-18T01:54:52;93102.50;;;7.88;100.00
17521;BME280;8878;-33.370;-70.552;2022-08-18T01:57:24;93107.66;;;7.95;100.00
17521;BME280;8878;-33.370;-70.552;2022-08-18T01:59:54;93104.91;;;8.13;100.00
17521;BME280;8878;-33.370;-70.552;2022-08-18T02:02:28;93095.66;;;8.22;100.00
17521;BME280;8878;-33.370;-70.552;2022-08-18T02:05:03;93097.34;;;8.05;100.00
17521;BME280;8878;-33.370;-70.552;2022-08-18T02:07:35;93103.41;;;7.94;100.00
17521;BME280;8878;-33.370;-70.552;2022-08-18T02:10:09;93111.41;;;7.87;100.00
17521;BME280;8878;-33.370;-70.552;2022-08-18T02:12:38;93112.00;;;8.01;100.00
17521;BME280;8878;-33.370;-70.552;2022-08-18T02:15:09;93120.00;;;8.06;100.00
17521;BME280;8878;-33.370;-70.552;2022-08-18T02:17:42;93123.09;;;8.03;100.00
17521;BME280;8878;-33.370;-70.552;2022-08-18T02:20:14;93135.88;;;7.99;100.00
17521;BME280;8878;-33.370;-70.552;2022-08-18T02:22:44;93132.78;;;8.02;100.00
17521;BME280;8878;-33.370;-70.552;2022-08-18T02:25:17;93143.19;;;8.09;100.00
17521;BME280;8878;-33.370;-70.552;2022-08-18T02:27:46;93135.31;;;8.09;100.00
17521;BME280;8878;-33.370;-70.552;2022-08-18T02:30:17;93127.09;;;8.17;100.00
17521;BME280;8878;-33.370;-70.552;2022-08-18T02:32:47;93126.09;;;8.30;100.00
17521;BME280;8878;-33.370;-70.552;2022-08-18T02:35:16;93132.16;;;8.30;100.00
17521;BME280;8878;-33.370;-70.552;2022-08-18T02:37:46;93127.59;;;8.37;100.00
17521;BME280;8878;-33.370;-70.552;2022-08-18T02:40:17;93130.94;;;8.44;100.00
17521;BME280;8878;-33.370;-70.552;2022-08-18T02:42:47;93130.59;;;8.52;100.00
17521;BME280;8878;-33.370;-70.552;2022-08-18T02:45:18;93128.06;;;8.57;100.00
17521;BME280;8878;-33.370;-70.552;2022-08-18T02:47:51;93119.94;;;8.36;100.00
17521;BME280;8878;-33.370;-70.552;2022-08-18T02:50:22;93124.59;;;8.22;100.00
17521;BME280;8878;-33.370;-70.552;2022-08-18T02:52:52;93130.75;;;8.16;100.00
17521;BME280;8878;-33.370;-70.552;2022-08-18T02:55:23;93121.25;;;8.26;100.00
17521;BME280;8878;-33.370;-70.552;2022-08-18T02:57:55;93127.25;;;8.34;100.00
17521;BME280;8878;-33.370;-70.552;2022-08-18T03:00:24;93131.25;;;8.36;100.00
17521;BME280;8878;-33.370;-70.552;2022-08-18T03:02:53;93127.28;;;8.45;100.00
17521;BME280;8878;-33.370;-70.552;2022-08-18T03:05:23;93126.78;;;8.48;100.00
17521;BME280;8878;-33.370;-70.552;2022-08-18T03:07:56;93119.25;;;8.52;100.00
17521;BME280;8878;-33.370;-70.552;2022-08-18T03:10:27;93116.84;;;8.50;100.00
17521;BME280;8878;-33.370;-70.552;2022-08-18T03:12:56;93117.31;;;8.47;100.00
17521;BME280;8878;-33.370;-70.552;2022-08-18T03:15:26;93115.69;;;8.46;100.00
17521;BME280;8878;-33.370;-70.552;2022-08-18T03:17:55;93122.28;;;8.14;100.00
17521;BME280;8878;-33.370;-70.552;2022-08-18T03:20:26;93120.09;;;8.11;100.00
17521;BME280;8878;-33.370;-70.552;2022-08-18T03:22:55;93120.78;;;8.18;100.00
17521;BME280;8878;-33.370;-70.552;2022-08-18T03:25:27;93133.25;;;8.11;100.00
17521;BME280;8878;-33.370;-70.552;2022-08-18T03:27:56;93131.81;;;7.73;100.00
17521;BME280;8878;-33.370;-70.552;2022-08-18T03:30:25;93124.94;;;7.72;100.00
17521;BME280;8878;-33.370;-70.552;2022-08-18T03:32:55;93137.41;;;7.47;100.00
17521;BME280;8878;-33.370;-70.552;2022-08-18T03:35:24;93135.81;;;7.46;100.00
17521;BME280;8878;-33.370;-70.552;2022-08-18T03:37:57;93142.47;;;7.60;100.00
17521;BME280;8878;-33.370;-70.552;2022-08-18T03:40:28;93137.22;;;7.60;100.00
17521;BME280;8878;-33.370;-70.552;2022-08-18T03:42:57;93134.31;;;7.38;100.00
17521;BME280;8878;-33.370;-70.552;2022-08-18T03:45:27;93137.16;;;7.37;100.00
17521;BME280;8878;-33.370;-70.552;2022-08-18T03:47:57;93140.81;;;7.36;100.00
17521;BME280;8878;-33.370;-70.552;2022-08-18T03:50:27;93126.34;;;7.45;100.00
17521;BME280;8878;-33.370;-70.552;2022-08-18T03:52:58;93142.09;;;7.45;100.00
17521;BME280;8878;-33.370;-70.552;2022-08-18T03:55:29;93139.91;;;7.42;100.00
17521;BME280;8878;-33.370;-70.552;2022-08-18T03:58:00;93146.63;;;7.38;100.00
17521;BME280;8878;-33.370;-70.552;2022-08-18T04:00:30;93152.19;;;7.30;100.00
17521;BME280;8878;-33.370;-70.552;2022-08-18T04:03:02;93154.31;;;7.21;100.00
17521;BME280;8878;-33.370;-70.552;2022-08-18T04:05:31;93149.94;;;7.15;100.00
17521;BME280;8878;-33.370;-70.552;2022-08-18T04:08:02;93151.75;;;7.15;100.00
17521;BME280;8878;-33.370;-70.552;2022-08-18T04:10:34;93160.31;;;7.10;100.00
17521;BME280;8878;-33.370;-70.552;2022-08-18T04:13:03;93170.28;;;7.01;100.00
17521;BME280;8878;-33.370;-70.552;2022-08-18T04:15:33;93174.22;;;6.92;100.00
17521;BME280;8878;-33.370;-70.552;2022-08-18T04:18:03;93166.50;;;6.79;100.00
17521;BME280;8878;-33.370;-70.552;2022-08-18T04:20:34;93165.31;;;6.75;100.00
17521;BME280;8878;-33.370;-70.552;2022-08-18T04:23:03;93161.53;;;6.71;100.00
17521;BME280;8878;-33.370;-70.552;2022-08-18T04:25:34;93174.50;;;6.41;100.00
17521;BME280;8878;-33.370;-70.552;2022-08-18T04:28:04;93169.59;;;6.26;100.00
17521;BME280;8878;-33.370;-70.552;2022-08-18T04:30:35;93165.28;;;6.39;100.00
17521;BME280;8878;-33.370;-70.552;2022-08-18T04:33:04;93162.78;;;6.44;100.00
17521;BME280;8878;-33.370;-70.552;2022-08-18T04:35:33;93159.16;;;6.45;100.00
17521;BME280;8878;-33.370;-70.552;2022-08-18T04:38:03;93162.78;;;6.44;100.00
17521;BME280;8878;-33.370;-70.552;2022-08-18T04:40:36;93169.72;;;6.38;100.00
17521;BME280;8878;-33.370;-70.552;2022-08-18T04:43:06;93177.72;;;6.18;100.00
17521;BME280;8878;-33.370;-70.552;2022-08-18T04:45:41;93176.75;;;6.13;100.00
17521;BME280;8878;-33.370;-70.552;2022-08-18T04:48:11;93174.88;;;5.95;100.00
17521;BME280;8878;-33.370;-70.552;2022-08-18T04:50:42;93170.88;;;5.86;100.00
17521;BME280;8878;-33.370;-70.552;2022-08-18T04:53:11;93180.75;;;5.84;100.00
17521;BME280;8878;-33.370;-70.552;2022-08-18T04:55:59;93175.19;;;6.05;100.00
17521;BME280;8878;-33.370;-70.552;2022-08-18T04:58:28;93164.41;;;6.20;100.00
17521;BME280;8878;-33.370;-70.552;2022-08-18T05:00:59;93167.19;;;6.00;100.00
17521;BME280;8878;-33.370;-70.552;2022-08-18T05:03:29;93159.59;;;5.92;100.00
17521;BME280;8878;-33.370;-70.552;2022-08-18T05:05:59;93161.69;;;6.08;100.00
17521;BME280;8878;-33.370;-70.552;2022-08-18T05:08:32;93157.75;;;6.24;100.00
17521;BME280;8878;-33.370;-70.552;2022-08-18T05:11:04;93154.53;;;6.22;100.00
17521;BME280;8878;-33.370;-70.552;2022-08-18T05:13:33;93163.03;;;5.86;100.00
17521;BME280;8878;-33.370;-70.552;2022-08-18T05:16:03;93152.91;;;5.96;100.00
17521;BME280;8878;-33.370;-70.552;2022-08-18T05:18:35;93156.00;;;6.11;100.00
17521;BME280;8878;-33.370;-70.552;2022-08-18T05:21:06;93150.28;;;6.21;100.00
17521;BME280;8878;-33.370;-70.552;2022-08-18T05:23:41;93148.31;;;6.16;100.00
17521;BME280;8878;-33.370;-70.552;2022-08-18T05:26:13;93145.31;;;6.13;100.00
17521;BME280;8878;-33.370;-70.552;2022-08-18T05:28:44;93149.34;;;6.15;100.00
17521;BME280;8878;-33.370;-70.552;2022-08-18T05:31:16;93152.38;;;6.12;100.00
17521;BME280;8878;-33.370;-70.552;2022-08-18T05:33:46;93158.63;;;6.11;100.00
17521;BME280;8878;-33.370;-70.552;2022-08-18T05:36:26;93146.19;;;6.07;100.00
17521;BME280;8878;-33.370;-70.552;2022-08-18T05:39:05;93158.63;;;5.80;100.00
17521;BME280;8878;-33.370;-70.552;2022-08-18T05:41:41;93163.81;;;5.86;100.00
17521;BME280;8878;-33.370;-70.552;2022-08-18T05:44:14;93158.53;;;6.00;100.00
17521;BME280;8878;-33.370;-70.552;2022-08-18T05:46:49;93156.50;;;6.02;100.00
17521;BME280;8878;-33.370;-70.552;2022-08-18T05:49:20;93143.59;;;6.00;100.00
17521;BME280;8878;-33.370;-70.552;2022-08-18T05:51:53;93147.88;;;5.95;100.00
17521;BME280;8878;-33.370;-70.552;2022-08-18T05:54:24;93150.47;;;5.63;100.00
17521;BME280;8878;-33.370;-70.552;2022-08-18T05:57:17;93146.03;;;5.64;100.00
17521;BME280;8878;-33.370;-70.552;2022-08-18T05:59:49;93152.19;;;5.76;100.00
17521;BME280;8878;-33.370;-70.552;2022-08-18T06:02:28;93152.19;;;5.76;100.00
17521;BME280;8878;-33.370;-70.552;2022-08-18T06:05:02;93147.34;;;5.48;100.00
17521;BME280;8878;-33.370;-70.552;2022-08-18T06:07:36;93149.47;;;5.26;100.00
17521;BME280;8878;-33.370;-70.552;2022-08-18T06:10:10;93145.38;;;5.43;100.00
17521;BME280;8878;-33.370;-70.552;2022-08-18T06:12:43;93153.34;;;5.55;100.00
17521;BME280;8878;-33.370;-70.552;2022-08-18T06:15:17;93149.84;;;5.36;100.00
17521;BME280;8878;-33.370;-70.552;2022-08-18T06:18:11;93136.19;;;5.28;100.00
17521;BME280;8878;-33.370;-70.552;2022-08-18T06:21:01;93136.34;;;5.39;100.00
17521;BME280;8878;-33.370;-70.552;2022-08-18T06:23:40;93146.00;;;5.39;100.00
17521;BME280;8878;-33.370;-70.552;2022-08-18T06:26:16;93146.84;;;5.33;100.00
17521;BME280;8878;-33.370;-70.552;2022-08-18T06:28:59;93141.50;;;5.15;100.00
17521;BME280;8878;-33.370;-70.552;2022-08-18T06:31:36;93135.78;;;5.31;100.00
17521;BME280;8878;-33.370;-70.552;2022-08-18T06:34:15;93128.69;;;5.38;100.00
17521;BME280;8878;-33.370;-70.552;2022-08-18T06:36:53;93130.19;;;5.21;100.00
17521;BME280;8878;-33.370;-70.552;2022-08-18T06:39:28;93140.22;;;5.30;100.00
17521;BME280;8878;-33.370;-70.552;2022-08-18T06:42:00;93123.59;;;5.49;100.00
17521;BME280;8878;-33.370;-70.552;2022-08-18T06:44:36;93118.44;;;5.36;100.00
17521;BME280;8878;-33.370;-70.552;2022-08-18T06:47:16;93123.84;;;5.03;100.00
17521;BME280;8878;-33.370;-70.552;2022-08-18T06:49:53;93128.31;;;4.96;100.00
17521;BME280;8878;-33.370;-70.552;2022-08-18T06:52:31;93128.25;;;5.09;100.00
17521;BME280;8878;-33.370;-70.552;2022-08-18T06:55:03;93141.69;;;5.13;100.00
17521;BME280;8878;-33.370;-70.552;2022-08-18T06:57:37;93130.19;;;5.21;100.00
17521;BME280;8878;-33.370;-70.552;2022-08-18T07:00:24;93124.34;;;5.25;100.00
17521;BME280;8878;-33.370;-70.552;2022-08-18T07:02:56;93116.91;;;5.22;100.00
17521;BME280;8878;-33.370;-70.552;2022-08-18T07:05:29;93127.66;;;5.01;100.00
17521;BME280;8878;-33.370;-70.552;2022-08-18T07:08:10;93116.53;;;5.19;100.00
17521;BME280;8878;-33.370;-70.552;2022-08-18T07:10:43;93112.63;;;5.28;100.00
17521;BME280;8878;-33.370;-70.552;2022-08-18T07:13:24;93115.28;;;5.21;100.00
17521;BME280;8878;-33.370;-70.552;2022-08-18T07:16:15;93116.50;;;5.25;100.00
17521;BME280;8878;-33.370;-70.552;2022-08-18T07:18:45;93110.66;;;5.23;100.00
17521;BME280;8878;-33.370;-70.552;2022-08-18T07:21:24;93113.75;;;5.07;100.00
17521;BME280;8878;-33.370;-70.552;2022-08-18T07:24:03;93108.16;;;5.03;100.00
17521;BME280;8878;-33.370;-70.552;2022-08-18T07:26:57;93107.88;;;5.18;100.00
17521;BME280;8878;-33.370;-70.552;2022-08-18T07:29:28;93101.38;;;5.27;100.00
17521;BME280;8878;-33.370;-70.552;2022-08-18T07:32:02;93105.66;;;5.15;100.00
17521;BME280;8878;-33.370;-70.552;2022-08-18T07:34:35;93112.22;;;5.31;100.00
17521;BME280;8878;-33.370;-70.552;2022-08-18T07:37:09;93101.53;;;5.39;100.00
17521;BME280;8878;-33.370;-70.552;2022-08-18T07:39:45;93106.41;;;5.29;100.00
17521;BME280;8878;-33.370;-70.552;2022-08-18T07:42:36;93116.53;;;5.12;100.00
17521;BME280;8878;-33.370;-70.552;2022-08-18T07:45:11;93112.03;;;5.32;100.00
17521;BME280;8878;-33.370;-70.552;2022-08-18T07:47:50;93096.28;;;5.39;100.00
17521;BME280;8878;-33.370;-70.552;2022-08-18T07:50:22;93110.47;;;5.25;100.00
17521;BME280;8878;-33.370;-70.552;2022-08-18T07:53:01;93110.22;;;5.26;100.00
17521;BME280;8878;-33.370;-70.552;2022-08-18T07:55:35;93097.50;;;5.36;100.00
17521;BME280;8878;-33.370;-70.552;2022-08-18T07:58:16;93108.81;;;5.30;100.00
17521;BME280;8878;-33.370;-70.552;2022-08-18T08:00:55;93098.09;;;5.38;100.00
17521;BME280;8878;-33.370;-70.552;2022-08-18T08:03:39;93091.06;;;5.64;100.00
17521;BME280;8878;-33.370;-70.552;2022-08-18T08:06:17;93096.50;;;5.62;100.00
17521;BME280;8878;-33.370;-70.552;2022-08-18T08:08:55;93098.31;;;5.62;100.00
17521;BME280;8878;-33.370;-70.552;2022-08-18T08:11:38;93094.25;;;5.72;100.00
17521;BME280;8878;-33.370;-70.552;2022-08-18T08:14:36;93092.78;;;5.76;100.00
17521;BME280;8878;-33.370;-70.552;2022-08-18T08:17:13;93085.47;;;5.85;100.00
17521;BME280;8878;-33.370;-70.552;2022-08-18T08:20:04;93089.09;;;5.84;100.00
17521;BME280;8878;-33.370;-70.552;2022-08-18T08:22:40;93091.97;;;5.82;100.00
17521;BME280;8878;-33.370;-70.552;2022-08-18T08:25:20;93093.53;;;5.83;100.00
17521;BME280;8878;-33.370;-70.552;2022-08-18T08:28:03;93088.69;;;5.87;100.00
17521;BME280;8878;-33.370;-70.552;2022-08-18T08:30:39;93082.25;;;5.83;100.00
17521;BME280;8878;-33.370;-70.552;2022-08-18T08:33:18;93080.00;;;5.62;100.00
17521;BME280;8878;-33.370;-70.552;2022-08-18T08:35:55;93080.84;;;5.56;100.00
17521;BME280;8878;-33.370;-70.552;2022-08-18T08:38:32;93077.22;;;5.57;100.00
17521;BME280;8878;-33.370;-70.552;2022-08-18T08:41:09;93072.44;;;5.54;100.00
17521;BME280;8878;-33.370;-70.552;2022-08-18T08:43:43;93080.28;;;5.54;100.00
17521;BME280;8878;-33.370;-70.552;2022-08-18T08:46:18;93078.09;;;5.50;100.00
17521;BME280;8878;-33.370;-70.552;2022-08-18T08:48:51;93087.94;;;5.48;100.00
17521;BME280;8878;-33.370;-70.552;2022-08-18T08:51:33;93076.47;;;5.49;100.00
17521;BME280;8878;-33.370;-70.552;2022-08-18T08:54:09;93067.53;;;5.32;100.00
17521;BME280;8878;-33.370;-70.552;2022-08-18T08:56:43;93062.34;;;5.26;100.00
17521;BME280;8878;-33.370;-70.552;2022-08-18T08:59:15;93072.25;;;5.17;100.00
17521;BME280;8878;-33.370;-70.552;2022-08-18T09:01:50;93065.97;;;4.87;100.00
17521;BME280;8878;-33.370;-70.552;2022-08-18T09:04:34;93078.13;;;4.75;100.00
17521;BME280;8878;-33.370;-70.552;2022-08-18T09:07:19;93063.16;;;4.88;100.00
17521;BME280;8878;-33.370;-70.552;2022-08-18T09:10:17;93070.84;;;4.77;100.00
17521;BME280;8878;-33.370;-70.552;2022-08-18T09:13:04;93072.47;;;4.71;100.00
17521;BME280;8878;-33.370;-70.552;2022-08-18T09:15:55;93065.63;;;4.77;100.00
17521;BME280;8878;-33.370;-70.552;2022-08-18T09:18:45;93058.97;;;4.81;100.00
17521;BME280;8878;-33.370;-70.552;2022-08-18T09:21:28;93060.22;;;4.71;100.00
17521;BME280;8878;-33.370;-70.552;2022-08-18T09:24:11;93065.66;;;4.70;100.00
17521;BME280;8878;-33.370;-70.552;2022-08-18T09:26:50;93060.81;;;4.73;100.00
17521;BME280;8878;-33.370;-70.552;2022-08-18T09:29:24;93070.03;;;4.76;100.00
17521;BME280;8878;-33.370;-70.552;2022-08-18T09:32:33;93066.41;;;4.77;100.00
17521;BME280;8878;-33.370;-70.552;2022-08-18T09:35:17;93076.06;;;4.77;100.00
17521;BME280;8878;-33.370;-70.552;2022-08-18T09:37:55;93076.03;;;4.83;100.00
17521;BME280;8878;-33.370;-70.552;2022-08-18T09:40:51;93078.41;;;4.91;100.00
17521;BME280;8878;-33.370;-70.552;2022-08-18T09:43:51;93078.88;;;4.82;100.00
17521;BME280;8878;-33.370;-70.552;2022-08-18T09:49:42;93067.50;;;4.56;100.00
17521;BME280;8878;-33.370;-70.552;2022-08-18T09:55:55;93059.78;;;4.23;100.00
17521;BME280;8878;-33.370;-70.552;2022-08-18T09:58:47;93067.81;;;4.22;100.00
17521;BME280;8878;-33.370;-70.552;2022-08-18T10:01:34;93072.06;;;4.16;100.00
17521;BME280;8878;-33.370;-70.552;2022-08-18T10:04:29;93067.47;;;4.12;100.00
17521;BME280;8878;-33.370;-70.552;2022-08-18T10:07:21;93068.47;;;4.11;100.00
17521;BME280;8878;-33.370;-70.552;2022-08-18T10:10:06;93066.03;;;4.16;100.00
17521;BME280;8878;-33.370;-70.552;2022-08-18T10:12:56;93064.25;;;4.03;100.00
17521;BME280;8878;-33.370;-70.552;2022-08-18T10:15:42;93068.66;;;4.09;100.00
17521;BME280;8878;-33.370;-70.552;2022-08-18T10:18:44;93065.59;;;4.32;100.00
17521;BME280;8878;-33.370;-70.552;2022-08-18T10:21:20;93062.94;;;4.45;100.00
17521;BME280;8878;-33.370;-70.552;2022-08-18T10:23:57;93060.56;;;4.37;100.00
17521;BME280;8878;-33.370;-70.552;2022-08-18T10:29:55;93079.88;;;4.23;100.00
17521;BME280;8878;-33.370;-70.552;2022-08-18T10:32:43;93075.84;;;4.27;100.00
17521;BME280;8878;-33.370;-70.552;2022-08-18T10:38:42;93088.31;;;4.31;100.00
17521;BME280;8878;-33.370;-70.552;2022-08-18T10:41:23;93078.06;;;4.30;100.00
17521;BME280;8878;-33.370;-70.552;2022-08-18T10:43:55;93083.13;;;4.12;100.00
17521;BME280;8878;-33.370;-70.552;2022-08-18T10:46:33;93070.25;;;4.10;100.00
17521;BME280;8878;-33.370;-70.552;2022-08-18T10:49:15;93066.22;;;4.14;100.00
17521;BME280;8878;-33.370;-70.552;2022-08-18T10:52:07;93077.47;;;4.15;100.00
17521;BME280;8878;-33.370;-70.552;2022-08-18T10:54:50;93063.81;;;4.13;100.00
17521;BME280;8878;-33.370;-70.552;2022-08-18T10:57:29;93067.84;;;4.09;100.00
17521;BME280;8878;-33.370;-70.552;2022-08-18T11:00:05;93070.28;;;3.97;100.00
17521;BME280;8878;-33.370;-70.552;2022-08-18T11:02:50;93066.44;;;4.00;100.00
17521;BME280;8878;-33.370;-70.552;2022-08-18T11:05:25;93061.84;;;4.02;100.00
17521;BME280;8878;-33.370;-70.552;2022-08-18T11:07:59;93059.63;;;4.12;100.00
17521;BME280;8878;-33.370;-70.552;2022-08-18T11:10:37;93057.81;;;4.06;100.00
17521;BME280;8878;-33.370;-70.552;2022-08-18T11:13:13;93053.59;;;4.11;100.00
17521;BME280;8878;-33.370;-70.552;2022-08-18T11:15:57;93052.38;;;4.14;100.00
17521;BME280;8878;-33.370;-70.552;2022-08-18T11:18:35;93055.78;;;4.14;100.00
17521;BME280;8878;-33.370;-70.552;2022-08-18T11:21:29;93049.59;;;4.02;100.00
17521;BME280;8878;-33.370;-70.552;2022-08-18T11:24:04;93032.94;;;3.97;100.00
17521;BME280;8878;-33.370;-70.552;2022-08-18T11:26:36;93032.94;;;3.90;100.00
17521;BME280;8878;-33.370;-70.552;2022-08-18T11:29:34;93030.91;;;3.92;100.00
17521;BME280;8878;-33.370;-70.552;2022-08-18T11:32:07;93031.13;;;3.77;100.00
17521;BME280;8878;-33.370;-70.552;2022-08-18T11:34:40;93028.13;;;3.87;100.00
17521;BME280;8878;-33.370;-70.552;2022-08-18T11:37:24;93021.88;;;3.94;100.00
17521;BME280;8878;-33.370;-70.552;2022-08-18T11:39:56;93028.75;;;3.76;100.00
17521;BME280;8878;-33.370;-70.552;2022-08-18T11:42:31;93025.72;;;3.72;100.00
17521;BME280;8878;-33.370;-70.552;2022-08-18T11:45:14;93028.09;;;3.93;100.00
17521;BME280;8878;-33.370;-70.552;2022-08-18T11:47:59;93026.28;;;4.01;100.00
17521;BME280;8878;-33.370;-70.552;2022-08-18T11:50:31;93024.50;;;3.88;100.00
17521;BME280;8878;-33.370;-70.552;2022-08-18T11:53:14;93030.91;;;3.92;100.00
17521;BME280;8878;-33.370;-70.552;2022-08-18T11:55:44;93037.34;;;4.03;100.00
17521;BME280;8878;-33.370;-70.552;2022-08-18T11:58:37;93031.06;;;4.17;100.00
17521;BME280;8878;-33.370;-70.552;2022-08-18T12:01:07;93028.47;;;4.17;100.00
17521;BME280;8878;-33.370;-70.552;2022-08-18T12:03:40;93034.88;;;4.21;100.00
17521;BME280;8878;-33.370;-70.552;2022-08-18T12:06:19;93028.25;;;4.25;100.00
17521;BME280;8878;-33.370;-70.552;2022-08-18T12:08:59;93026.00;;;4.28;100.00
17521;BME280;8878;-33.370;-70.552;2022-08-18T12:11:32;93032.00;;;4.36;100.00
17521;BME280;8878;-33.370;-70.552;2022-08-18T12:14:04;93042.44;;;4.42;100.00
17521;BME280;8878;-33.370;-70.552;2022-08-18T12:16:37;93052.88;;;4.42;100.00
17521;BME280;8878;-33.370;-70.552;2022-08-18T12:19:09;93040.44;;;4.44;100.00
17521;BME280;8878;-33.370;-70.552;2022-08-18T12:21:42;93038.34;;;4.66;100.00
17521;BME280;8878;-33.370;-70.552;2022-08-18T12:24:21;93040.88;;;4.79;100.00
17521;BME280;8878;-33.370;-70.552;2022-08-18T12:26:51;93039.13;;;4.66;100.00
17521;BME280;8878;-33.370;-70.552;2022-08-18T12:29:21;93040.84;;;4.86;100.00
17521;BME280;8878;-33.370;-70.552;2022-08-18T12:31:52;93042.72;;;5.10;100.00
17521;BME280;8878;-33.370;-70.552;2022-08-18T12:34:23;93051.34;;;5.17;100.00
17521;BME280;8878;-33.370;-70.552;2022-08-18T12:36:56;93042.00;;;5.28;100.00
17521;BME280;8878;-33.370;-70.552;2022-08-18T12:39:27;93044.81;;;5.26;100.00
17521;BME280;8878;-33.370;-70.552;2022-08-18T12:41:57;93048.13;;;5.15;100.00
17521;BME280;8878;-33.370;-70.552;2022-08-18T12:44:28;93061.13;;;4.97;100.00
17521;BME280;8878;-33.370;-70.552;2022-08-18T12:46:57;93053.44;;;5.02;100.00
17521;BME280;8878;-33.370;-70.552;2022-08-18T12:49:26;93042.72;;;5.10;100.00
17521;BME280;8878;-33.370;-70.552;2022-08-18T12:51:58;93040.59;;;4.94;100.00
17521;BME280;8878;-33.370;-70.552;2022-08-18T12:54:27;93039.38;;;4.96;100.00
17521;BME280;8878;-33.370;-70.552;2022-08-18T12:56:58;93030.06;;;5.07;100.00
17521;BME280;8878;-33.370;-70.552;2022-08-18T12:59:28;93034.66;;;5.11;100.00
17521;BME280;8878;-33.370;-70.552;2022-08-18T13:01:57;93028.34;;;5.26;100.00
17521;BME280;8878;-33.370;-70.552;2022-08-18T13:04:27;93031.72;;;5.33;100.00
17521;BME280;8878;-33.370;-70.552;2022-08-18T13:06:58;93032.63;;;5.45;100.00
17521;BME280;8878;-33.370;-70.552;2022-08-18T13:09:29;93022.59;;;5.67;100.00
17521;BME280;8878;-33.370;-70.552;2022-08-18T13:11:59;93017.44;;;5.78;100.00
17521;BME280;8878;-33.370;-70.552;2022-08-18T13:14:28;93015.03;;;5.77;100.00
17521;BME280;8878;-33.370;-70.552;2022-08-18T13:16:58;93010.13;;;5.87;100.00
17521;BME280;8878;-33.370;-70.552;2022-08-18T13:19:27;93007.47;;;6.12;100.00
17521;BME280;8878;-33.370;-70.552;2022-08-18T13:21:59;93008.59;;;6.22;100.00
17521;BME280;8878;-33.370;-70.552;2022-08-18T13:24:28;93007.41;;;6.18;100.00
17521;BME280;8878;-33.370;-70.552;2022-08-18T13:26:57;93014.09;;;6.33;100.00
17521;BME280;8878;-33.370;-70.552;2022-08-18T13:29:27;93003.19;;;6.36;100.00
17521;BME280;8878;-33.370;-70.552;2022-08-18T13:31:56;93000.72;;;6.59;100.00
17521;BME280;8878;-33.370;-70.552;2022-08-18T13:34:26;92989.28;;;6.83;100.00
17521;BME280;8878;-33.370;-70.552;2022-08-18T13:36:58;92991.00;;;6.89;100.00